sensor_id;sensor_type;location;lat;lon;timestamp;P1;durP1;ratioP1;P2;durP2;ratioP2
51810;SDS011;52468;40.116;18.296;2023-12-04T00:01:30;6.73;;;3.20;;
51810;SDS011;52468;40.116;18.296;2023-12-04T00:03:58;10.93;;;4.00;;
51810;SDS011;52468;40.116;18.296;2023-12-04T00:06:26;9.33;;;2.70;;
51810;SDS011;52468;40.116;18.296;2023-12-04T00:08:53;7.00;;;3.47;;
51810;SDS011;52468;40.116;18.296;2023-12-04T00:11:21;12.50;;;4.00;;
51810;SDS011;52468;40.116;18.296;2023-12-04T00:13:49;8.23;;;3.27;;
51810;SDS011;52468;40.116;18.296;2023-12-04T00:16:17;7.40;;;3.87;;
51810;SDS011;52468;40.116;18.296;2023-12-04T00:18:45;7.53;;;3.80;;
51810;SDS011;52468;40.116;18.296;2023-12-04T00:21:13;6.93;;;3.20;;
51810;SDS011;52468;40.116;18.296;2023-12-04T00:23:41;7.17;;;3.17;;
51810;SDS011;52468;40.116;18.296;2023-12-04T00:26:09;4.73;;;3.00;;
51810;SDS011;52468;40.116;18.296;2023-12-04T00:28:37;10.67;;;3.63;;
51810;SDS011;52468;40.116;18.296;2023-12-04T00:31:05;7.90;;;3.00;;
51810;SDS011;52468;40.116;18.296;2023-12-04T00:33:33;8.57;;;3.10;;
51810;SDS011;52468;40.116;18.296;2023-12-04T00:36:01;5.73;;;2.60;;
51810;SDS011;52468;40.116;18.296;2023-12-04T00:38:29;8.67;;;2.80;;
51810;SDS011;52468;40.116;18.296;2023-12-04T00:40:57;6.33;;;3.03;;
51810;SDS011;52468;40.116;18.296;2023-12-04T00:43:25;3.43;;;2.93;;
51810;SDS011;52468;40.116;18.296;2023-12-04T00:45:52;9.83;;;3.97;;
51810;SDS011;52468;40.116;18.296;2023-12-04T00:48:20;6.70;;;3.57;;
51810;SDS011;52468;40.116;18.296;2023-12-04T00:50:50;6.70;;;3.80;;
51810;SDS011;52468;40.116;18.296;2023-12-04T00:53:19;8.97;;;3.33;;
51810;SDS011;52468;40.116;18.296;2023-12-04T00:55:46;6.70;;;3.60;;
51810;SDS011;52468;40.116;18.296;2023-12-04T00:58:14;4.73;;;2.77;;
51810;SDS011;52468;40.116;18.296;2023-12-04T01:00:42;5.20;;;2.90;;
51810;SDS011;52468;40.116;18.296;2023-12-04T01:03:10;6.13;;;3.30;;
51810;SDS011;52468;40.116;18.296;2023-12-04T01:05:38;9.10;;;3.77;;
51810;SDS011;52468;40.116;18.296;2023-12-04T01:08:06;4.93;;;3.13;;
51810;SDS011;52468;40.116;18.296;2023-12-04T01:10:34;6.60;;;3.47;;
51810;SDS011;52468;40.116;18.296;2023-12-04T01:13:02;6.70;;;3.07;;
51810;SDS011;52468;40.116;18.296;2023-12-04T01:15:30;5.90;;;3.37;;
51810;SDS011;52468;40.116;18.296;2023-12-04T01:17:58;11.33;;;3.97;;
51810;SDS011;52468;40.116;18.296;2023-12-04T01:20:27;6.13;;;3.10;;
51810;SDS011;52468;40.116;18.296;2023-12-04T01:22:56;7.47;;;3.57;;
51810;SDS011;52468;40.116;18.296;2023-12-04T01:25:24;6.20;;;3.23;;
51810;SDS011;52468;40.116;18.296;2023-12-04T01:27:52;10.93;;;3.13;;
51810;SDS011;52468;40.116;18.296;2023-12-04T01:30:20;14.23;;;4.13;;
51810;SDS011;52468;40.116;18.296;2023-12-04T01:32:48;5.10;;;3.40;;
51810;SDS011;52468;40.116;18.296;2023-12-04T01:35:16;13.30;;;3.83;;
51810;SDS011;52468;40.116;18.296;2023-12-04T01:37:43;10.07;;;3.30;;
51810;SDS011;52468;40.116;18.296;2023-12-04T01:40:11;13.93;;;4.07;;
51810;SDS011;52468;40.116;18.296;2023-12-04T01:42:39;7.17;;;3.20;;
51810;SDS011;52468;40.116;18.296;2023-12-04T01:45:09;10.50;;;3.50;;
51810;SDS011;52468;40.116;18.296;2023-12-04T01:47:37;7.33;;;4.63;;
51810;SDS011;52468;40.116;18.296;2023-12-04T01:50:06;8.63;;;3.60;;
51810;SDS011;52468;40.116;18.296;2023-12-04T01:52:35;7.50;;;3.70;;
51810;SDS011;52468;40.116;18.296;2023-12-04T01:55:04;6.40;;;3.70;;
51810;SDS011;52468;40.116;18.296;2023-12-04T01:57:33;9.27;;;4.10;;
51810;SDS011;52468;40.116;18.296;2023-12-04T02:00:02;9.07;;;4.37;;
51810;SDS011;52468;40.116;18.296;2023-12-04T02:02:38;7.67;;;3.27;;
51810;SDS011;52468;40.116;18.296;2023-12-04T02:05:07;8.87;;;3.80;;
51810;SDS011;52468;40.116;18.296;2023-12-04T02:07:35;8.00;;;3.67;;
51810;SDS011;52468;40.116;18.296;2023-12-04T02:10:04;9.33;;;3.57;;
51810;SDS011;52468;40.116;18.296;2023-12-04T02:12:33;6.27;;;3.63;;
51810;SDS011;52468;40.116;18.296;2023-12-04T02:15:01;4.43;;;3.20;;
51810;SDS011;52468;40.116;18.296;2023-12-04T02:17:31;8.37;;;3.33;;
51810;SDS011;52468;40.116;18.296;2023-12-04T02:20:00;7.77;;;3.97;;
51810;SDS011;52468;40.116;18.296;2023-12-04T02:22:29;8.97;;;4.33;;
51810;SDS011;52468;40.116;18.296;2023-12-04T02:24:57;8.63;;;3.90;;
51810;SDS011;52468;40.116;18.296;2023-12-04T02:27:38;7.20;;;3.20;;
51810;SDS011;52468;40.116;18.296;2023-12-04T02:30:17;6.23;;;3.07;;
51810;SDS011;52468;40.116;18.296;2023-12-04T02:32:47;11.87;;;3.80;;
51810;SDS011;52468;40.116;18.296;2023-12-04T02:35:16;6.60;;;3.93;;
51810;SDS011;52468;40.116;18.296;2023-12-04T02:37:48;7.85;;;3.88;;
51810;SDS011;52468;40.116;18.296;2023-12-04T02:40:17;10.23;;;3.63;;
51810;SDS011;52468;40.116;18.296;2023-12-04T02:42:45;7.10;;;3.57;;
51810;SDS011;52468;40.116;18.296;2023-12-04T02:45:13;4.40;;;3.50;;
51810;SDS011;52468;40.116;18.296;2023-12-04T02:47:41;9.97;;;4.57;;
51810;SDS011;52468;40.116;18.296;2023-12-04T02:50:09;11.27;;;4.40;;
51810;SDS011;52468;40.116;18.296;2023-12-04T02:52:37;6.67;;;3.93;;
51810;SDS011;52468;40.116;18.296;2023-12-04T02:55:05;7.37;;;4.53;;
51810;SDS011;52468;40.116;18.296;2023-12-04T02:57:33;10.00;;;4.30;;
51810;SDS011;52468;40.116;18.296;2023-12-04T03:00:01;11.40;;;5.43;;
51810;SDS011;52468;40.116;18.296;2023-12-04T03:02:31;6.67;;;3.97;;
51810;SDS011;52468;40.116;18.296;2023-12-04T03:04:59;10.13;;;4.43;;
51810;SDS011;52468;40.116;18.296;2023-12-04T03:07:27;8.57;;;3.77;;
51810;SDS011;52468;40.116;18.296;2023-12-04T03:09:54;9.13;;;4.00;;
51810;SDS011;52468;40.116;18.296;2023-12-04T03:12:22;8.70;;;3.97;;
51810;SDS011;52468;40.116;18.296;2023-12-04T03:14:50;12.97;;;4.17;;
51810;SDS011;52468;40.116;18.296;2023-12-04T03:17:18;8.70;;;3.97;;
51810;SDS011;52468;40.116;18.296;2023-12-04T03:19:46;6.23;;;4.17;;
51810;SDS011;52468;40.116;18.296;2023-12-04T03:22:14;8.23;;;3.80;;
51810;SDS011;52468;40.116;18.296;2023-12-04T03:24:43;7.97;;;4.03;;
51810;SDS011;52468;40.116;18.296;2023-12-04T03:27:10;12.10;;;4.07;;
51810;SDS011;52468;40.116;18.296;2023-12-04T03:29:38;6.60;;;4.10;;
51810;SDS011;52468;40.116;18.296;2023-12-04T03:32:06;8.70;;;4.67;;
51810;SDS011;52468;40.116;18.296;2023-12-04T03:34:34;8.87;;;4.70;;
51810;SDS011;52468;40.116;18.296;2023-12-04T03:37:02;14.07;;;5.57;;
51810;SDS011;52468;40.116;18.296;2023-12-04T03:39:30;9.70;;;4.57;;
51810;SDS011;52468;40.116;18.296;2023-12-04T03:41:58;10.03;;;4.97;;
51810;SDS011;52468;40.116;18.296;2023-12-04T03:44:26;10.40;;;4.07;;
51810;SDS011;52468;40.116;18.296;2023-12-04T03:46:54;11.23;;;5.07;;
51810;SDS011;52468;40.116;18.296;2023-12-04T03:49:22;14.20;;;6.30;;
51810;SDS011;52468;40.116;18.296;2023-12-04T03:51:50;10.00;;;5.17;;
51810;SDS011;52468;40.116;18.296;2023-12-04T03:54:17;8.57;;;5.10;;
51810;SDS011;52468;40.116;18.296;2023-12-04T03:56:45;17.27;;;6.70;;
51810;SDS011;52468;40.116;18.296;2023-12-04T03:59:13;9.07;;;5.03;;
51810;SDS011;52468;40.116;18.296;2023-12-04T04:01:41;9.90;;;5.17;;
51810;SDS011;52468;40.116;18.296;2023-12-04T04:04:09;9.20;;;4.97;;
51810;SDS011;52468;40.116;18.296;2023-12-04T04:06:37;12.57;;;4.47;;
51810;SDS011;52468;40.116;18.296;2023-12-04T04:09:05;9.27;;;4.67;;
51810;SDS011;52468;40.116;18.296;2023-12-04T04:11:33;14.17;;;4.60;;
51810;SDS011;52468;40.116;18.296;2023-12-04T04:14:02;10.90;;;4.27;;
51810;SDS011;52468;40.116;18.296;2023-12-04T04:16:30;11.03;;;5.07;;
51810;SDS011;52468;40.116;18.296;2023-12-04T04:18:58;12.40;;;5.23;;
51810;SDS011;52468;40.116;18.296;2023-12-04T04:21:26;7.30;;;3.93;;
51810;SDS011;52468;40.116;18.296;2023-12-04T04:23:54;10.63;;;4.93;;
51810;SDS011;52468;40.116;18.296;2023-12-04T04:26:22;9.27;;;5.20;;
51810;SDS011;52468;40.116;18.296;2023-12-04T04:28:49;10.13;;;5.07;;
51810;SDS011;52468;40.116;18.296;2023-12-04T04:31:17;9.33;;;4.03;;
51810;SDS011;52468;40.116;18.296;2023-12-04T04:33:45;14.43;;;4.63;;
51810;SDS011;52468;40.116;18.296;2023-12-04T04:36:13;13.87;;;5.37;;
51810;SDS011;52468;40.116;18.296;2023-12-04T04:38:41;10.23;;;5.13;;
51810;SDS011;52468;40.116;18.296;2023-12-04T04:41:15;13.13;;;5.93;;
51810;SDS011;52468;40.116;18.296;2023-12-04T04:43:43;7.30;;;4.63;;
51810;SDS011;52468;40.116;18.296;2023-12-04T04:46:11;8.20;;;4.80;;
51810;SDS011;52468;40.116;18.296;2023-12-04T04:48:40;9.17;;;4.47;;
51810;SDS011;52468;40.116;18.296;2023-12-04T04:51:08;10.13;;;5.47;;
51810;SDS011;52468;40.116;18.296;2023-12-04T04:53:36;9.37;;;4.23;;
51810;SDS011;52468;40.116;18.296;2023-12-04T04:56:05;14.07;;;5.30;;
51810;SDS011;52468;40.116;18.296;2023-12-04T04:58:35;5.73;;;3.87;;
51810;SDS011;52468;40.116;18.296;2023-12-04T05:01:03;8.37;;;4.50;;
51810;SDS011;52468;40.116;18.296;2023-12-04T05:03:31;10.03;;;5.20;;
51810;SDS011;52468;40.116;18.296;2023-12-04T05:05:59;11.10;;;4.73;;
51810;SDS011;52468;40.116;18.296;2023-12-04T05:08:27;11.23;;;5.23;;
51810;SDS011;52468;40.116;18.296;2023-12-04T05:10:55;7.47;;;4.50;;
51810;SDS011;52468;40.116;18.296;2023-12-04T05:13:23;9.03;;;4.63;;
51810;SDS011;52468;40.116;18.296;2023-12-04T05:15:51;8.47;;;4.77;;
51810;SDS011;52468;40.116;18.296;2023-12-04T05:18:19;9.10;;;5.40;;
51810;SDS011;52468;40.116;18.296;2023-12-04T05:20:47;8.37;;;4.93;;
51810;SDS011;52468;40.116;18.296;2023-12-04T05:23:14;11.10;;;4.93;;
51810;SDS011;52468;40.116;18.296;2023-12-04T05:25:42;9.87;;;4.87;;
51810;SDS011;52468;40.116;18.296;2023-12-04T05:28:10;7.77;;;4.40;;
51810;SDS011;52468;40.116;18.296;2023-12-04T05:30:38;7.90;;;4.73;;
51810;SDS011;52468;40.116;18.296;2023-12-04T05:33:06;9.87;;;4.50;;
51810;SDS011;52468;40.116;18.296;2023-12-04T05:35:34;8.67;;;4.30;;
51810;SDS011;52468;40.116;18.296;2023-12-04T05:38:03;7.83;;;4.47;;
51810;SDS011;52468;40.116;18.296;2023-12-04T05:40:31;12.97;;;4.90;;
51810;SDS011;52468;40.116;18.296;2023-12-04T05:42:59;8.63;;;4.87;;
51810;SDS011;52468;40.116;18.296;2023-12-04T05:45:27;8.60;;;4.67;;
51810;SDS011;52468;40.116;18.296;2023-12-04T05:47:55;6.53;;;4.33;;
51810;SDS011;52468;40.116;18.296;2023-12-04T05:50:23;12.80;;;4.57;;
51810;SDS011;52468;40.116;18.296;2023-12-04T05:52:51;9.17;;;4.53;;
51810;SDS011;52468;40.116;18.296;2023-12-04T05:55:19;10.60;;;5.17;;
51810;SDS011;52468;40.116;18.296;2023-12-04T05:57:47;7.80;;;4.53;;
51810;SDS011;52468;40.116;18.296;2023-12-04T06:00:15;7.43;;;5.23;;
51810;SDS011;52468;40.116;18.296;2023-12-04T06:02:43;11.77;;;5.13;;
51810;SDS011;52468;40.116;18.296;2023-12-04T06:05:12;9.23;;;4.93;;
51810;SDS011;52468;40.116;18.296;2023-12-04T06:07:40;7.10;;;4.70;;
51810;SDS011;52468;40.116;18.296;2023-12-04T06:10:09;11.23;;;6.00;;
51810;SDS011;52468;40.116;18.296;2023-12-04T06:12:37;11.17;;;6.00;;
51810;SDS011;52468;40.116;18.296;2023-12-04T06:15:05;10.10;;;6.33;;
51810;SDS011;52468;40.116;18.296;2023-12-04T06:17:33;8.63;;;4.77;;
51810;SDS011;52468;40.116;18.296;2023-12-04T06:20:01;8.50;;;5.43;;
51810;SDS011;52468;40.116;18.296;2023-12-04T06:22:30;9.80;;;5.13;;
51810;SDS011;52468;40.116;18.296;2023-12-04T06:24:58;10.83;;;5.17;;
51810;SDS011;52468;40.116;18.296;2023-12-04T06:27:26;14.57;;;6.37;;
51810;SDS011;52468;40.116;18.296;2023-12-04T06:29:54;10.03;;;4.90;;
51810;SDS011;52468;40.116;18.296;2023-12-04T06:32:22;13.07;;;5.77;;
51810;SDS011;52468;40.116;18.296;2023-12-04T06:34:50;9.10;;;5.30;;
51810;SDS011;52468;40.116;18.296;2023-12-04T06:37:18;9.13;;;4.67;;
51810;SDS011;52468;40.116;18.296;2023-12-04T06:39:46;6.50;;;4.40;;
51810;SDS011;52468;40.116;18.296;2023-12-04T06:42:17;11.40;;;4.77;;
51810;SDS011;52468;40.116;18.296;2023-12-04T06:44:45;9.30;;;4.57;;
51810;SDS011;52468;40.116;18.296;2023-12-04T06:47:13;8.57;;;4.33;;
51810;SDS011;52468;40.116;18.296;2023-12-04T06:49:45;11.37;;;4.60;;
51810;SDS011;52468;40.116;18.296;2023-12-04T06:52:13;10.13;;;4.33;;
51810;SDS011;52468;40.116;18.296;2023-12-04T06:54:41;8.17;;;3.70;;
51810;SDS011;52468;40.116;18.296;2023-12-04T06:57:09;5.30;;;4.23;;
51810;SDS011;52468;40.116;18.296;2023-12-04T06:59:37;8.63;;;3.47;;
51810;SDS011;52468;40.116;18.296;2023-12-04T07:02:05;8.63;;;3.70;;
51810;SDS011;52468;40.116;18.296;2023-12-04T07:04:33;10.77;;;3.53;;
51810;SDS011;52468;40.116;18.296;2023-12-04T07:07:01;9.07;;;3.93;;
51810;SDS011;52468;40.116;18.296;2023-12-04T07:09:32;6.03;;;2.67;;
51810;SDS011;52468;40.116;18.296;2023-12-04T07:12:01;5.77;;;2.80;;
51810;SDS011;52468;40.116;18.296;2023-12-04T07:14:30;4.67;;;2.40;;
51810;SDS011;52468;40.116;18.296;2023-12-04T07:16:57;4.30;;;2.17;;
51810;SDS011;52468;40.116;18.296;2023-12-04T07:19:26;7.23;;;1.97;;
51810;SDS011;52468;40.116;18.296;2023-12-04T07:21:54;5.50;;;2.60;;
51810;SDS011;52468;40.116;18.296;2023-12-04T07:24:22;3.27;;;2.20;;
51810;SDS011;52468;40.116;18.296;2023-12-04T07:26:50;5.13;;;1.63;;
51810;SDS011;52468;40.116;18.296;2023-12-04T07:29:18;2.47;;;1.70;;
51810;SDS011;52468;40.116;18.296;2023-12-04T07:31:46;5.57;;;1.87;;
51810;SDS011;52468;40.116;18.296;2023-12-04T07:34:14;4.47;;;1.80;;
51810;SDS011;52468;40.116;18.296;2023-12-04T07:36:42;3.20;;;1.70;;
51810;SDS011;52468;40.116;18.296;2023-12-04T07:39:11;4.83;;;1.77;;
51810;SDS011;52468;40.116;18.296;2023-12-04T07:41:39;4.33;;;1.87;;
51810;SDS011;52468;40.116;18.296;2023-12-04T07:44:07;3.93;;;1.80;;
51810;SDS011;52468;40.116;18.296;2023-12-04T07:46:35;4.47;;;1.53;;
51810;SDS011;52468;40.116;18.296;2023-12-04T07:49:03;4.83;;;1.53;;
51810;SDS011;52468;40.116;18.296;2023-12-04T07:51:31;4.03;;;1.63;;
51810;SDS011;52468;40.116;18.296;2023-12-04T07:53:59;7.03;;;1.43;;
51810;SDS011;52468;40.116;18.296;2023-12-04T07:56:29;3.77;;;2.07;;
51810;SDS011;52468;40.116;18.296;2023-12-04T07:58:57;4.53;;;1.57;;
51810;SDS011;52468;40.116;18.296;2023-12-04T08:01:25;4.03;;;1.70;;
51810;SDS011;52468;40.116;18.296;2023-12-04T08:03:53;4.90;;;1.83;;
51810;SDS011;52468;40.116;18.296;2023-12-04T08:06:21;4.47;;;2.00;;
51810;SDS011;52468;40.116;18.296;2023-12-04T08:08:50;2.23;;;1.70;;
51810;SDS011;52468;40.116;18.296;2023-12-04T08:11:19;8.10;;;1.87;;
51810;SDS011;52468;40.116;18.296;2023-12-04T08:13:47;3.83;;;1.80;;
51810;SDS011;52468;40.116;18.296;2023-12-04T08:16:15;4.47;;;2.13;;
51810;SDS011;52468;40.116;18.296;2023-12-04T08:18:43;4.73;;;1.80;;
51810;SDS011;52468;40.116;18.296;2023-12-04T08:21:11;2.83;;;1.53;;
51810;SDS011;52468;40.116;18.296;2023-12-04T08:23:40;3.93;;;1.90;;
51810;SDS011;52468;40.116;18.296;2023-12-04T08:26:08;3.50;;;2.10;;
51810;SDS011;52468;40.116;18.296;2023-12-04T08:28:36;4.90;;;2.13;;
51810;SDS011;52468;40.116;18.296;2023-12-04T08:31:08;4.63;;;1.33;;
51810;SDS011;52468;40.116;18.296;2023-12-04T08:33:36;6.43;;;1.70;;
51810;SDS011;52468;40.116;18.296;2023-12-04T08:36:04;4.80;;;1.30;;
51810;SDS011;52468;40.116;18.296;2023-12-04T08:38:32;3.10;;;1.70;;
51810;SDS011;52468;40.116;18.296;2023-12-04T08:41:00;3.40;;;1.77;;
51810;SDS011;52468;40.116;18.296;2023-12-04T08:43:28;8.13;;;1.53;;
51810;SDS011;52468;40.116;18.296;2023-12-04T08:45:56;2.80;;;1.80;;
51810;SDS011;52468;40.116;18.296;2023-12-04T08:48:24;3.37;;;1.63;;
51810;SDS011;52468;40.116;18.296;2023-12-04T08:50:52;3.60;;;1.63;;
51810;SDS011;52468;40.116;18.296;2023-12-04T08:53:20;6.70;;;2.93;;
51810;SDS011;52468;40.116;18.296;2023-12-04T08:55:48;2.90;;;1.57;;
51810;SDS011;52468;40.116;18.296;2023-12-04T08:58:16;3.00;;;1.70;;
51810;SDS011;52468;40.116;18.296;2023-12-04T09:00:44;5.03;;;1.77;;
51810;SDS011;52468;40.116;18.296;2023-12-04T09:03:12;5.27;;;1.27;;
51810;SDS011;52468;40.116;18.296;2023-12-04T09:05:41;6.73;;;1.93;;
51810;SDS011;52468;40.116;18.296;2023-12-04T09:08:09;5.93;;;1.83;;
51810;SDS011;52468;40.116;18.296;2023-12-04T09:10:37;4.60;;;1.50;;
51810;SDS011;52468;40.116;18.296;2023-12-04T09:13:06;2.77;;;1.87;;
51810;SDS011;52468;40.116;18.296;2023-12-04T09:15:34;3.70;;;1.60;;
51810;SDS011;52468;40.116;18.296;2023-12-04T09:18:02;2.90;;;1.30;;
51810;SDS011;52468;40.116;18.296;2023-12-04T09:20:31;3.20;;;1.73;;
51810;SDS011;52468;40.116;18.296;2023-12-04T09:22:59;2.77;;;1.63;;
51810;SDS011;52468;40.116;18.296;2023-12-04T09:25:27;3.30;;;1.50;;
51810;SDS011;52468;40.116;18.296;2023-12-04T09:27:54;8.43;;;1.80;;
51810;SDS011;52468;40.116;18.296;2023-12-04T09:30:22;4.87;;;1.00;;
51810;SDS011;52468;40.116;18.296;2023-12-04T09:32:50;3.43;;;1.17;;
51810;SDS011;52468;40.116;18.296;2023-12-04T09:35:18;4.10;;;0.90;;
51810;SDS011;52468;40.116;18.296;2023-12-04T09:37:48;1.07;;;0.77;;
51810;SDS011;52468;40.116;18.296;2023-12-04T09:40:17;2.40;;;0.93;;
51810;SDS011;52468;40.116;18.296;2023-12-04T09:42:46;2.10;;;0.90;;
51810;SDS011;52468;40.116;18.296;2023-12-04T09:45:14;4.00;;;1.27;;
51810;SDS011;52468;40.116;18.296;2023-12-04T09:47:43;4.83;;;1.40;;
51810;SDS011;52468;40.116;18.296;2023-12-04T09:50:11;1.43;;;1.33;;
51810;SDS011;52468;40.116;18.296;2023-12-04T09:52:39;2.77;;;0.90;;
51810;SDS011;52468;40.116;18.296;2023-12-04T09:55:07;1.50;;;0.93;;
51810;SDS011;52468;40.116;18.296;2023-12-04T09:57:35;3.30;;;1.53;;
51810;SDS011;52468;40.116;18.296;2023-12-04T10:00:03;1.23;;;0.97;;
51810;SDS011;52468;40.116;18.296;2023-12-04T10:02:41;2.27;;;1.37;;
51810;SDS011;52468;40.116;18.296;2023-12-04T10:05:10;2.67;;;1.00;;
51810;SDS011;52468;40.116;18.296;2023-12-04T10:07:38;2.37;;;1.27;;
51810;SDS011;52468;40.116;18.296;2023-12-04T10:10:09;2.17;;;0.93;;
51810;SDS011;52468;40.116;18.296;2023-12-04T10:12:38;2.27;;;1.10;;
51810;SDS011;52468;40.116;18.296;2023-12-04T10:15:06;1.70;;;1.10;;
51810;SDS011;52468;40.116;18.296;2023-12-04T10:17:39;2.87;;;1.23;;
51810;SDS011;52468;40.116;18.296;2023-12-04T10:22:57;3.30;;;1.03;;
51810;SDS011;52468;40.116;18.296;2023-12-04T10:25:29;2.63;;;1.13;;
51810;SDS011;52468;40.116;18.296;2023-12-04T10:28:08;2.33;;;1.03;;
51810;SDS011;52468;40.116;18.296;2023-12-04T10:30:37;4.70;;;0.70;;
51810;SDS011;52468;40.116;18.296;2023-12-04T10:33:06;2.30;;;1.00;;
51810;SDS011;52468;40.116;18.296;2023-12-04T10:35:36;6.00;;;1.17;;
51810;SDS011;52468;40.116;18.296;2023-12-04T10:38:04;4.13;;;1.03;;
51810;SDS011;52468;40.116;18.296;2023-12-04T10:40:33;1.93;;;0.97;;
51810;SDS011;52468;40.116;18.296;2023-12-04T10:45:37;2.93;;;1.23;;
51810;SDS011;52468;40.116;18.296;2023-12-04T10:48:07;1.10;;;0.90;;
51810;SDS011;52468;40.116;18.296;2023-12-04T10:50:39;1.63;;;0.73;;
51810;SDS011;52468;40.116;18.296;2023-12-04T10:53:12;1.83;;;1.00;;
51810;SDS011;52468;40.116;18.296;2023-12-04T10:55:41;1.83;;;1.33;;
51810;SDS011;52468;40.116;18.296;2023-12-04T10:58:11;1.10;;;0.77;;
51810;SDS011;52468;40.116;18.296;2023-12-04T11:00:44;2.27;;;1.10;;
51810;SDS011;52468;40.116;18.296;2023-12-04T11:06:04;1.27;;;0.87;;
51810;SDS011;52468;40.116;18.296;2023-12-04T11:08:36;3.25;;;1.48;;
51810;SDS011;52468;40.116;18.296;2023-12-04T11:11:05;0.97;;;0.70;;
51810;SDS011;52468;40.116;18.296;2023-12-04T11:13:42;2.07;;;0.80;;
51810;SDS011;52468;40.116;18.296;2023-12-04T11:16:34;3.00;;;0.93;;
51810;SDS011;52468;40.116;18.296;2023-12-04T11:19:20;4.80;;;1.17;;
51810;SDS011;52468;40.116;18.296;2023-12-04T11:21:53;1.43;;;0.90;;
51810;SDS011;52468;40.116;18.296;2023-12-04T11:24:25;2.50;;;0.73;;
51810;SDS011;52468;40.116;18.296;2023-12-04T11:26:53;1.10;;;0.80;;
51810;SDS011;52468;40.116;18.296;2023-12-04T11:29:22;1.63;;;0.80;;
51810;SDS011;52468;40.116;18.296;2023-12-04T11:31:51;3.70;;;1.03;;
51810;SDS011;52468;40.116;18.296;2023-12-04T11:34:19;3.37;;;1.20;;
51810;SDS011;52468;40.116;18.296;2023-12-04T11:36:47;1.20;;;0.90;;
51810;SDS011;52468;40.116;18.296;2023-12-04T11:39:15;1.13;;;0.97;;
51810;SDS011;52468;40.116;18.296;2023-12-04T11:41:43;1.80;;;1.10;;
51810;SDS011;52468;40.116;18.296;2023-12-04T11:44:13;3.03;;;1.03;;
51810;SDS011;52468;40.116;18.296;2023-12-04T11:47:05;2.97;;;1.03;;
51810;SDS011;52468;40.116;18.296;2023-12-04T11:49:33;5.63;;;2.23;;
51810;SDS011;52468;40.116;18.296;2023-12-04T11:52:05;4.20;;;1.27;;
51810;SDS011;52468;40.116;18.296;2023-12-04T11:57:27;4.85;;;0.95;;
51810;SDS011;52468;40.116;18.296;2023-12-04T12:02:45;1.70;;;1.07;;
51810;SDS011;52468;40.116;18.296;2023-12-04T12:05:16;2.83;;;1.30;;
51810;SDS011;52468;40.116;18.296;2023-12-04T12:07:44;2.63;;;1.20;;
51810;SDS011;52468;40.116;18.296;2023-12-04T12:10:12;1.43;;;1.00;;
51810;SDS011;52468;40.116;18.296;2023-12-04T12:12:40;0.63;;;0.57;;
51810;SDS011;52468;40.116;18.296;2023-12-04T12:15:09;3.07;;;0.70;;
51810;SDS011;52468;40.116;18.296;2023-12-04T12:17:40;1.43;;;1.00;;
51810;SDS011;52468;40.116;18.296;2023-12-04T12:20:09;1.80;;;1.17;;
51810;SDS011;52468;40.116;18.296;2023-12-04T12:22:38;6.90;;;1.13;;
51810;SDS011;52468;40.116;18.296;2023-12-04T12:25:13;3.10;;;1.30;;
51810;SDS011;52468;40.116;18.296;2023-12-04T12:27:41;1.97;;;0.87;;
51810;SDS011;52468;40.116;18.296;2023-12-04T12:30:10;1.63;;;1.00;;
51810;SDS011;52468;40.116;18.296;2023-12-04T12:32:38;1.27;;;0.90;;
51810;SDS011;52468;40.116;18.296;2023-12-04T12:35:06;1.33;;;0.80;;
51810;SDS011;52468;40.116;18.296;2023-12-04T12:37:35;2.47;;;0.80;;
51810;SDS011;52468;40.116;18.296;2023-12-04T12:40:06;1.97;;;1.40;;
51810;SDS011;52468;40.116;18.296;2023-12-04T12:42:37;2.33;;;1.63;;
51810;SDS011;52468;40.116;18.296;2023-12-04T12:45:09;1.10;;;1.00;;
51810;SDS011;52468;40.116;18.296;2023-12-04T12:47:44;0.83;;;0.70;;
51810;SDS011;52468;40.116;18.296;2023-12-04T12:50:13;2.33;;;1.07;;
51810;SDS011;52468;40.116;18.296;2023-12-04T12:52:42;1.47;;;0.83;;
51810;SDS011;52468;40.116;18.296;2023-12-04T12:55:10;1.77;;;1.00;;
51810;SDS011;52468;40.116;18.296;2023-12-04T12:57:38;2.87;;;1.57;;
51810;SDS011;52468;40.116;18.296;2023-12-04T13:00:07;4.10;;;1.87;;
51810;SDS011;52468;40.116;18.296;2023-12-04T13:02:37;4.67;;;2.30;;
51810;SDS011;52468;40.116;18.296;2023-12-04T13:05:05;2.40;;;1.37;;
51810;SDS011;52468;40.116;18.296;2023-12-04T13:07:39;1.80;;;0.50;;
51810;SDS011;52468;40.116;18.296;2023-12-04T13:10:09;2.97;;;1.30;;
51810;SDS011;52468;40.116;18.296;2023-12-04T13:12:38;3.03;;;1.10;;
51810;SDS011;52468;40.116;18.296;2023-12-04T13:15:06;3.40;;;1.40;;
51810;SDS011;52468;40.116;18.296;2023-12-04T13:17:34;1.80;;;1.40;;
51810;SDS011;52468;40.116;18.296;2023-12-04T13:20:02;3.13;;;1.00;;
51810;SDS011;52468;40.116;18.296;2023-12-04T13:22:32;5.70;;;1.37;;
51810;SDS011;52468;40.116;18.296;2023-12-04T13:25:00;3.60;;;1.20;;
51810;SDS011;52468;40.116;18.296;2023-12-04T13:27:29;2.60;;;1.20;;
51810;SDS011;52468;40.116;18.296;2023-12-04T13:29:57;2.13;;;1.13;;
51810;SDS011;52468;40.116;18.296;2023-12-04T13:32:25;1.27;;;1.10;;
51810;SDS011;52468;40.116;18.296;2023-12-04T13:34:53;2.20;;;1.40;;
51810;SDS011;52468;40.116;18.296;2023-12-04T13:37:22;2.07;;;1.40;;
51810;SDS011;52468;40.116;18.296;2023-12-04T13:39:51;2.90;;;1.27;;
51810;SDS011;52468;40.116;18.296;2023-12-04T13:42:25;1.73;;;0.90;;
51810;SDS011;52468;40.116;18.296;2023-12-04T13:45:11;4.70;;;1.60;;
51810;SDS011;52468;40.116;18.296;2023-12-04T13:47:42;3.00;;;1.07;;
51810;SDS011;52468;40.116;18.296;2023-12-04T13:50:13;2.00;;;1.13;;
51810;SDS011;52468;40.116;18.296;2023-12-04T13:52:41;2.10;;;1.53;;
51810;SDS011;52468;40.116;18.296;2023-12-04T13:55:09;5.77;;;1.80;;
51810;SDS011;52468;40.116;18.296;2023-12-04T13:57:48;4.33;;;1.60;;
51810;SDS011;52468;40.116;18.296;2023-12-04T14:00:25;1.83;;;1.40;;
51810;SDS011;52468;40.116;18.296;2023-12-04T14:02:53;2.67;;;2.10;;
51810;SDS011;52468;40.116;18.296;2023-12-04T14:05:27;3.30;;;1.53;;
51810;SDS011;52468;40.116;18.296;2023-12-04T14:07:55;0.93;;;0.90;;
51810;SDS011;52468;40.116;18.296;2023-12-04T14:10:25;2.53;;;1.40;;
51810;SDS011;52468;40.116;18.296;2023-12-04T14:12:54;1.80;;;1.20;;
51810;SDS011;52468;40.116;18.296;2023-12-04T14:15:23;2.80;;;1.40;;
51810;SDS011;52468;40.116;18.296;2023-12-04T14:17:51;2.40;;;1.83;;
51810;SDS011;52468;40.116;18.296;2023-12-04T14:20:19;3.43;;;2.73;;
51810;SDS011;52468;40.116;18.296;2023-12-04T14:22:48;3.07;;;1.67;;
51810;SDS011;52468;40.116;18.296;2023-12-04T14:25:16;3.30;;;1.50;;
51810;SDS011;52468;40.116;18.296;2023-12-04T14:27:44;1.73;;;1.60;;
51810;SDS011;52468;40.116;18.296;2023-12-04T14:30:12;4.13;;;2.50;;
51810;SDS011;52468;40.116;18.296;2023-12-04T14:32:41;4.37;;;3.37;;
51810;SDS011;52468;40.116;18.296;2023-12-04T14:35:09;3.13;;;2.50;;
51810;SDS011;52468;40.116;18.296;2023-12-04T14:37:38;11.53;;;5.80;;
51810;SDS011;52468;40.116;18.296;2023-12-04T14:40:06;12.77;;;4.13;;
51810;SDS011;52468;40.116;18.296;2023-12-04T14:42:34;7.80;;;3.03;;
51810;SDS011;52468;40.116;18.296;2023-12-04T14:45:03;7.30;;;3.33;;
51810;SDS011;52468;40.116;18.296;2023-12-04T14:47:31;5.07;;;2.67;;
51810;SDS011;52468;40.116;18.296;2023-12-04T14:49:59;5.70;;;2.67;;
51810;SDS011;52468;40.116;18.296;2023-12-04T14:52:28;4.10;;;2.30;;
51810;SDS011;52468;40.116;18.296;2023-12-04T14:54:56;5.53;;;2.57;;
51810;SDS011;52468;40.116;18.296;2023-12-04T14:57:51;3.67;;;3.27;;